< < Back
Terminal Aerodrome Forecast


Current Version              Previous Versions:   1  2  3  4  5  6  7  8  9  

Terminal Aerodrome Forecast

528
FTUS44 KOHX 240200 AAB
TAFBNA
TAF AMD
KBNA 240210Z 2402/2424 19015G25KT P6SM VCSH BKN015
      TEMPO 2402/2404 5SM -SHRA
     FM240500 19015G25KT P6SM BKN015
     FM241000 23017G27KT P6SM BKN015 BKN025
      TEMPO 2410/2414 -SHRA
     FM241500 24016G26KT P6SM SCT015 BKN025
     FM241900 24013KT P6SM BKN035=

Latest METAR

012
SAUS70 KWBC 240500 RRH
MTRBNA
METAR KBNA 240453Z 21011G18KT 10SM FEW027 BKN055 17/14 A2950 RMK AO2
RAE23 SLP987 P0000 T01670139


USA.gov is the U.S. government's official web portal to all federal, state and local government web resources and services.